createdAt,value
2023-05-06T00:01:30.451Z,102555.20
2023-05-06T00:03:58.631Z,102556.95
2023-05-06T00:06:27.666Z,102555.58
2023-05-06T00:08:56.086Z,102554.71
2023-05-06T00:11:24.166Z,102557.39
2023-05-06T00:13:52.230Z,102557.69
2023-05-06T00:16:20.444Z,102558.72
2023-05-06T00:18:48.686Z,102559.72
2023-05-06T00:21:16.853Z,102562.27
2023-05-06T00:23:45.024Z,102563.74
2023-05-06T00:26:13.061Z,102569.70
2023-05-06T00:28:41.080Z,102572.30
2023-05-06T00:31:09.950Z,102570.67
2023-05-06T00:33:38.129Z,102567.07
2023-05-06T00:36:06.815Z,102568.36
2023-05-06T00:38:34.978Z,102573.13
2023-05-06T00:41:03.567Z,102571.36
2023-05-06T00:43:31.636Z,102569.99
2023-05-06T00:46:00.193Z,102567.98
2023-05-06T00:48:28.678Z,102570.45
2023-05-06T00:50:57.694Z,102570.36
2023-05-06T00:53:25.761Z,102575.08
2023-05-06T00:55:54.340Z,102577.75
2023-05-06T00:58:22.841Z,102580.64
2023-05-06T01:00:52.452Z,102587.34
2023-05-06T01:03:21.061Z,102584.35
2023-05-06T01:06:03.342Z,102581.36
2023-05-06T01:09:14.820Z,102580.02
2023-05-06T01:12:12.402Z,102581.65
2023-05-06T01:14:46.032Z,102586.33
2023-05-06T01:17:18.476Z,102592.21
2023-05-06T01:19:51.044Z,102595.73
2023-05-06T01:22:19.847Z,102599.44
2023-05-06T01:24:47.936Z,102599.08
2023-05-06T01:27:18.827Z,102603.46
2023-05-06T01:29:48.338Z,102610.60
2023-05-06T01:32:19.507Z,102613.31
2023-05-06T01:34:56.842Z,102604.81
2023-05-06T01:37:59.638Z,102607.20
2023-05-06T01:40:30.505Z,102610.48
2023-05-06T01:43:02.465Z,102612.79
2023-05-06T01:45:34.023Z,102608.52
2023-05-06T01:48:02.711Z,102608.66
2023-05-06T01:50:31.459Z,102600.26
2023-05-06T01:53:01.274Z,102595.95
2023-05-06T01:55:29.851Z,102596.88
2023-05-06T01:57:58.182Z,102599.89
2023-05-06T02:00:27.117Z,102600.23
2023-05-06T02:02:55.417Z,102596.21
2023-05-06T02:05:23.672Z,102600.09
2023-05-06T02:07:52.762Z,102597.04
2023-05-06T02:10:21.245Z,102590.27
2023-05-06T02:12:55.908Z,102587.65
2023-05-06T02:15:24.255Z,102590.04
2023-05-06T02:17:53.062Z,102596.30
2023-05-06T02:20:21.304Z,102591.15
2023-05-06T02:22:49.277Z,102588.13
2023-05-06T02:25:17.380Z,102590.52
2023-05-06T02:27:46.872Z,102602.11
2023-05-06T02:30:15.226Z,102599.96
2023-05-06T02:32:43.321Z,102607.58
2023-05-06T02:35:11.614Z,102607.61
2023-05-06T02:37:39.782Z,102599.06
2023-05-06T02:40:09.100Z,102597.52
2023-05-06T02:42:37.255Z,102597.89
2023-05-06T02:45:05.859Z,102605.63
2023-05-06T02:47:33.898Z,102603.09
2023-05-06T02:50:02.126Z,102599.55
2023-05-06T02:52:30.168Z,102596.45
2023-05-06T02:54:58.263Z,102601.17
2023-05-06T02:57:26.569Z,102601.58
2023-05-06T02:59:54.736Z,102604.88
2023-05-06T03:02:22.836Z,102606.40
2023-05-06T03:04:51.192Z,102603.59
2023-05-06T03:07:20.495Z,102601.98
2023-05-06T03:09:49.067Z,102601.13
2023-05-06T03:12:17.139Z,102599.30
2023-05-06T03:14:45.308Z,102599.09
2023-05-06T03:17:13.565Z,102601.19
2023-05-06T03:19:41.659Z,102600.35
2023-05-06T03:22:10.542Z,102599.82
2023-05-06T03:24:41.427Z,102602.73
2023-05-06T03:27:09.452Z,102601.15
2023-05-06T03:29:37.568Z,102603.58
2023-05-06T03:32:06.527Z,102601.21
2023-05-06T03:34:40.322Z,102596.88
2023-05-06T03:37:09.278Z,102602.02
2023-05-06T03:39:37.694Z,102598.14
2023-05-06T03:42:08.601Z,102597.48
2023-05-06T03:44:38.233Z,102594.91
2023-05-06T03:47:06.708Z,102593.39
2023-05-06T03:49:34.983Z,102600.64
2023-05-06T03:52:03.091Z,102596.27
2023-05-06T03:54:31.643Z,102591.80
2023-05-06T03:57:00.216Z,102596.27
2023-05-06T03:59:28.189Z,102595.09
2023-05-06T04:01:57.104Z,102599.05
2023-05-06T04:04:27.463Z,102591.99
2023-05-06T04:06:55.519Z,102594.92
2023-05-06T04:09:24.854Z,102593.11
2023-05-06T04:11:52.992Z,102596.74
2023-05-06T04:14:20.919Z,102599.30
2023-05-06T04:16:49.339Z,102595.28
2023-05-06T04:19:17.956Z,102593.48
2023-05-06T04:21:46.711Z,102593.05
2023-05-06T04:24:18.144Z,102588.53
2023-05-06T04:26:46.177Z,102588.43
2023-05-06T04:29:14.598Z,102592.62
2023-05-06T04:31:50.380Z,102592.73
2023-05-06T04:34:18.384Z,102589.34
2023-05-06T04:36:48.069Z,102591.05
2023-05-06T04:39:21.128Z,102582.86
2023-05-06T04:41:49.451Z,102581.48
2023-05-06T04:44:20.392Z,102584.13
2023-05-06T04:46:48.777Z,102576.67
2023-05-06T04:49:17.250Z,102573.13
2023-05-06T04:51:45.652Z,102572.81
2023-05-06T04:54:14.080Z,102572.27
2023-05-06T04:56:42.176Z,102576.36
2023-05-06T04:59:11.074Z,102570.34
2023-05-06T05:01:39.409Z,102575.00
2023-05-06T05:04:07.560Z,102575.12
2023-05-06T05:06:35.690Z,102578.98
2023-05-06T05:09:03.973Z,102573.17
2023-05-06T05:11:32.605Z,102566.80
2023-05-06T05:14:02.170Z,102572.42
2023-05-06T05:16:31.613Z,102568.86
2023-05-06T05:19:03.315Z,102564.98
2023-05-06T05:21:33.061Z,102561.48
2023-05-06T05:24:01.394Z,102560.94
2023-05-06T05:26:29.737Z,102558.05
2023-05-06T05:28:58.228Z,102553.89
2023-05-06T05:31:26.456Z,102551.66
2023-05-06T05:33:54.744Z,102553.60
2023-05-06T05:36:23.803Z,102545.03
2023-05-06T05:38:54.542Z,102542.36
2023-05-06T05:41:23.350Z,102547.74
2023-05-06T05:43:51.416Z,102550.98
2023-05-06T05:46:20.111Z,102542.40
2023-05-06T05:48:48.818Z,102542.35
2023-05-06T05:51:17.997Z,102550.05
2023-05-06T05:53:46.414Z,102544.73
2023-05-06T05:56:15.166Z,102546.14
2023-05-06T05:58:43.394Z,102533.48
2023-05-06T06:01:11.662Z,102545.84
2023-05-06T06:03:39.896Z,102542.67
2023-05-06T06:06:09.549Z,102539.14
2023-05-06T06:08:37.927Z,102540.79
2023-05-06T06:11:06.479Z,102532.93
2023-05-06T06:13:40.840Z,102536.20
2023-05-06T06:16:09.291Z,102532.52
2023-05-06T06:18:37.506Z,102541.84
2023-05-06T06:21:05.549Z,102536.58
2023-05-06T06:23:33.516Z,102541.10
2023-05-06T06:26:03.985Z,102538.86
2023-05-06T06:28:33.855Z,102536.64
2023-05-06T06:31:02.100Z,102529.88
2023-05-06T06:33:30.136Z,102530.38
2023-05-06T06:35:58.592Z,102529.08
2023-05-06T06:38:26.816Z,102531.02
2023-05-06T06:40:54.832Z,102534.28
2023-05-06T06:43:24.021Z,102538.73
2023-05-06T06:46:03.107Z,102532.97
2023-05-06T06:48:31.450Z,102534.45
2023-05-06T06:50:59.599Z,102529.09
2023-05-06T06:53:27.615Z,102533.79
2023-05-06T06:55:55.655Z,102526.11
2023-05-06T06:58:23.809Z,102527.85
2023-05-06T07:00:51.754Z,102528.25
2023-05-06T07:03:19.951Z,102526.21
2023-05-06T07:05:48.453Z,102525.58
2023-05-06T07:08:17.299Z,102523.05
2023-05-06T07:10:45.400Z,102528.96
2023-05-06T07:13:13.541Z,102524.92
2023-05-06T07:15:41.738Z,102518.08
2023-05-06T07:18:10.074Z,102521.08
2023-05-06T07:20:38.174Z,102522.58
2023-05-06T07:23:06.214Z,102519.92
2023-05-06T07:25:35.557Z,102513.52
2023-05-06T07:28:03.717Z,102506.68
2023-05-06T07:30:31.803Z,102502.88
2023-05-06T07:33:00.309Z,102508.61
2023-05-06T07:35:28.411Z,102508.04
2023-05-06T07:37:56.387Z,102504.95
2023-05-06T07:40:24.518Z,102500.19
2023-05-06T07:42:52.585Z,102502.09
2023-05-06T07:45:23.703Z,102496.73
2023-05-06T07:47:51.927Z,102492.71
2023-05-06T07:50:20.320Z,102499.64
2023-05-06T07:52:48.262Z,102503.10
2023-05-06T07:55:16.304Z,102497.29
2023-05-06T07:57:44.366Z,102496.35
2023-05-06T08:00:12.948Z,102499.89
2023-05-06T08:02:44.642Z,102506.89
2023-05-06T08:05:14.188Z,102506.65
2023-05-06T08:07:42.533Z,102499.27
2023-05-06T08:10:11.241Z,102496.30
2023-05-06T08:12:39.253Z,102497.23
2023-05-06T08:15:08.367Z,102498.61
2023-05-06T08:17:36.433Z,102496.91
2023-05-06T08:20:05.114Z,102497.84
2023-05-06T08:22:33.294Z,102502.91
2023-05-06T08:25:02.021Z,102498.32
2023-05-06T08:27:30.024Z,102495.99
2023-05-06T08:29:58.087Z,102493.55
2023-05-06T08:32:26.256Z,102491.67
2023-05-06T08:34:54.222Z,102484.35
2023-05-06T08:37:22.205Z,102482.98
2023-05-06T08:39:50.391Z,102480.44
2023-05-06T08:42:18.603Z,102479.94
2023-05-06T08:44:47.740Z,102483.83
2023-05-06T08:47:15.814Z,102478.45
2023-05-06T08:49:43.797Z,102471.92
2023-05-06T08:52:12.529Z,102472.60
2023-05-06T08:54:41.535Z,102464.30
2023-05-06T08:57:12.793Z,102460.73
2023-05-06T08:59:42.545Z,102461.53
2023-05-06T09:02:11.861Z,102459.30
2023-05-06T09:04:41.318Z,102464.36
2023-05-06T09:07:09.428Z,102452.43
2023-05-06T09:09:37.470Z,102457.06
2023-05-06T09:12:11.542Z,102457.10
2023-05-06T09:14:40.366Z,102452.27
2023-05-06T09:17:28.348Z,102455.45
2023-05-06T09:19:57.575Z,102450.52
2023-05-06T09:22:30.564Z,102445.92
2023-05-06T09:24:59.028Z,102446.91
2023-05-06T09:27:31.329Z,102457.23
2023-05-06T09:30:12.689Z,102449.27
2023-05-06T09:32:41.400Z,102449.46
2023-05-06T09:35:10.743Z,102445.63
2023-05-06T09:37:39.778Z,102446.02
2023-05-06T09:40:09.492Z,102450.06
2023-05-06T09:42:37.910Z,102436.21
2023-05-06T09:45:08.717Z,102442.47
2023-05-06T09:47:38.202Z,102434.73
2023-05-06T09:50:09.026Z,102440.20
2023-05-06T09:52:37.360Z,102437.60
2023-05-06T09:55:06.998Z,102437.26
2023-05-06T09:57:37.123Z,102434.95
2023-05-06T10:00:12.171Z,102441.78
2023-05-06T10:02:44.446Z,102438.82
2023-05-06T10:05:14.032Z,102440.59
2023-05-06T10:07:42.695Z,102433.04
2023-05-06T10:10:12.609Z,102433.04
2023-05-06T10:12:41.058Z,102431.80
2023-05-06T10:15:10.105Z,102427.95
2023-05-06T10:17:40.959Z,102428.61
2023-05-06T10:20:13.919Z,102428.54
2023-05-06T10:22:49.471Z,102429.23
2023-05-06T10:25:26.436Z,102426.04
2023-05-06T10:27:54.633Z,102427.41
2023-05-06T10:30:25.177Z,102418.90
2023-05-06T10:32:57.509Z,102423.48
2023-05-06T10:35:25.566Z,102413.14
2023-05-06T10:37:56.583Z,102410.03
2023-05-06T10:40:24.752Z,102412.65
2023-05-06T10:42:52.793Z,102410.16
2023-05-06T10:45:20.916Z,102405.96
2023-05-06T10:47:58.076Z,102408.98
2023-05-06T10:50:27.401Z,102410.25
2023-05-06T10:52:57.838Z,102403.77
2023-05-06T10:55:32.773Z,102400.83
2023-05-06T10:58:16.551Z,102405.77
2023-05-06T11:00:58.276Z,102397.16
2023-05-06T11:03:26.555Z,102391.41
2023-05-06T11:05:54.989Z,102394.85
2023-05-06T11:08:25.773Z,102387.38
2023-05-06T11:10:54.370Z,102398.43
2023-05-06T11:13:28.303Z,102405.09
2023-05-06T11:15:58.270Z,102399.70
2023-05-06T11:18:34.023Z,102393.40
2023-05-06T11:21:07.379Z,102388.63
2023-05-06T11:23:50.726Z,102387.91
2023-05-06T11:26:19.338Z,102391.19
2023-05-06T11:28:49.618Z,102388.02
2023-05-06T11:31:18.026Z,102381.63
2023-05-06T11:33:52.886Z,102383.98
2023-05-06T11:36:21.921Z,102384.70
2023-05-06T11:38:52.684Z,102387.70
2023-05-06T11:41:23.403Z,102384.89
2023-05-06T11:43:53.697Z,102381.20
2023-05-06T11:46:23.793Z,102385.80
2023-05-06T11:48:52.041Z,102390.70
2023-05-06T11:51:23.729Z,102386.86
2023-05-06T11:53:53.102Z,102384.94
2023-05-06T11:56:21.338Z,102381.23
2023-05-06T11:58:49.604Z,102377.92
2023-05-06T12:01:17.677Z,102374.80
2023-05-06T12:03:45.927Z,102373.43
2023-05-06T12:06:14.327Z,102368.19
2023-05-06T12:08:42.454Z,102362.45
2023-05-06T12:11:11.324Z,102368.44
2023-05-06T12:13:40.721Z,102366.00
2023-05-06T12:16:10.350Z,102361.46
2023-05-06T12:18:38.892Z,102355.33
2023-05-06T12:21:07.474Z,102359.75
2023-05-06T12:23:35.455Z,102359.06
2023-05-06T12:26:09.255Z,102359.61
2023-05-06T12:28:37.694Z,102360.84
2023-05-06T12:31:22.715Z,102361.17
2023-05-06T12:33:50.970Z,102358.38
2023-05-06T12:36:19.783Z,102356.63
2023-05-06T12:38:56.408Z,102357.52
2023-05-06T12:41:26.139Z,102352.94
2023-05-06T12:43:54.121Z,102347.50
2023-05-06T12:46:22.225Z,102351.54
2023-05-06T12:49:00.665Z,102348.73
2023-05-06T12:51:31.129Z,102350.31
2023-05-06T12:53:59.283Z,102341.91
2023-05-06T12:56:27.361Z,102348.05
2023-05-06T12:58:59.922Z,102340.15
2023-05-06T13:01:28.111Z,102345.76
2023-05-06T13:03:59.291Z,102339.79
2023-05-06T13:06:27.245Z,102338.91
2023-05-06T13:08:55.257Z,102337.86
2023-05-06T13:11:25.864Z,102332.95
2023-05-06T13:13:53.992Z,102337.55
2023-05-06T13:16:22.489Z,102331.25
2023-05-06T13:18:50.832Z,102332.48
2023-05-06T13:21:19.013Z,102336.16
2023-05-06T13:23:48.133Z,102337.00
2023-05-06T13:26:17.500Z,102329.63
2023-05-06T13:28:45.517Z,102334.37
2023-05-06T13:31:13.623Z,102332.08
2023-05-06T13:33:41.811Z,102331.92
2023-05-06T13:36:10.004Z,102336.13
2023-05-06T13:38:37.956Z,102331.73
2023-05-06T13:41:07.450Z,102324.00
2023-05-06T13:43:35.440Z,102321.89
2023-05-06T13:46:04.150Z,102320.49
2023-05-06T13:48:32.112Z,102320.32
2023-05-06T13:51:00.206Z,102318.92
2023-05-06T13:53:28.229Z,102323.17
2023-05-06T13:55:56.161Z,102313.49
2023-05-06T13:58:24.186Z,102319.29
2023-05-06T14:00:52.234Z,102320.16
2023-05-06T14:03:20.306Z,102324.91
2023-05-06T14:05:48.401Z,102318.05
2023-05-06T14:08:16.349Z,102316.32
2023-05-06T14:10:44.414Z,102317.73
2023-05-06T14:13:12.526Z,102315.96
2023-05-06T14:15:40.757Z,102322.11
2023-05-06T14:18:08.786Z,102312.80
2023-05-06T14:20:36.809Z,102307.02
2023-05-06T14:23:06.670Z,102304.91
2023-05-06T14:25:34.886Z,102304.02
2023-05-06T14:28:03.160Z,102306.84
2023-05-06T14:30:31.735Z,102306.30
2023-05-06T14:33:00.301Z,102307.02
2023-05-06T14:35:28.444Z,102304.73
2023-05-06T14:37:56.527Z,102304.02
2023-05-06T14:40:24.718Z,102301.91
2023-05-06T14:42:53.733Z,102299.47
2023-05-06T14:45:21.802Z,102295.42
2023-05-06T14:47:49.904Z,102296.12
2023-05-06T14:50:18.657Z,102299.29
2023-05-06T14:52:46.842Z,102298.05
2023-05-06T14:55:15.158Z,102300.70
2023-05-06T14:57:43.128Z,102298.94
2023-05-06T15:00:12.845Z,102299.09
2023-05-06T15:02:41.195Z,102302.77
2023-05-06T15:05:13.555Z,102296.97
2023-05-06T15:07:42.015Z,102294.69
2023-05-06T15:10:10.780Z,102297.67
2023-05-06T15:12:38.962Z,102297.85
2023-05-06T15:15:08.298Z,102299.26
2023-05-06T15:17:36.559Z,102295.04
2023-05-06T15:20:06.914Z,102293.11
2023-05-06T15:22:36.722Z,102291.90
2023-05-06T15:25:09.527Z,102295.61
2023-05-06T15:27:40.306Z,102294.34
2023-05-06T15:30:09.193Z,102289.77
2023-05-06T15:32:37.413Z,102294.16
2023-05-06T15:35:06.479Z,102292.75
2023-05-06T15:37:34.731Z,102289.94
2023-05-06T15:40:02.803Z,102292.57
2023-05-06T15:42:30.794Z,102294.68
2023-05-06T15:44:58.849Z,102299.25
2023-05-06T15:47:26.936Z,102291.88
2023-05-06T15:49:55.310Z,102295.20
2023-05-06T15:52:25.041Z,102295.55
2023-05-06T15:54:57.715Z,102291.34
2023-05-06T15:57:30.398Z,102295.91
2023-05-06T15:59:58.529Z,102293.80
2023-05-06T16:02:27.512Z,102292.74
2023-05-06T16:04:56.339Z,102289.77
2023-05-06T16:07:24.681Z,102290.46
2023-05-06T16:09:52.650Z,102288.36
2023-05-06T16:12:20.601Z,102287.65
2023-05-06T16:14:48.701Z,102287.65
2023-05-06T16:17:16.963Z,102291.52
2023-05-06T16:19:44.931Z,102292.91
2023-05-06T16:22:12.917Z,102293.61
2023-05-06T16:24:40.831Z,102292.38
2023-05-06T16:27:08.834Z,102295.00
2023-05-06T16:29:36.829Z,102290.44
2023-05-06T16:32:05.430Z,102293.77
2023-05-06T16:34:33.492Z,102296.91
2023-05-06T16:37:01.528Z,102294.45
2023-05-06T16:39:29.503Z,102297.59
2023-05-06T16:41:57.401Z,102303.02
2023-05-06T16:44:25.385Z,102300.38
2023-05-06T16:46:53.440Z,102303.36
2023-05-06T16:49:22.114Z,102304.58
2023-05-06T16:51:50.160Z,102306.34
2023-05-06T16:54:18.048Z,102304.91
2023-05-06T16:56:52.233Z,102304.58
2023-05-06T16:59:22.386Z,102307.73
2023-05-06T17:01:50.935Z,102311.92
2023-05-06T17:04:18.955Z,102308.40
2023-05-06T17:06:46.976Z,102305.77
2023-05-06T17:09:15.050Z,102304.88
2023-05-06T17:11:43.431Z,102305.95
2023-05-06T17:14:11.696Z,102304.73
2023-05-06T17:16:40.864Z,102310.70
2023-05-06T17:19:09.278Z,102310.52
2023-05-06T17:21:37.246Z,102312.10
2023-05-06T17:24:06.641Z,102312.11
2023-05-06T17:26:34.899Z,102312.63
2023-05-06T17:29:03.089Z,102310.52
2023-05-06T17:31:31.140Z,102311.93
2023-05-06T17:33:59.287Z,102311.23
2023-05-06T17:36:27.708Z,102311.59
2023-05-06T17:39:04.868Z,102313.86
2023-05-06T17:41:33.712Z,102314.73
2023-05-06T17:44:01.751Z,102311.21
2023-05-06T17:46:31.492Z,102312.97
2023-05-06T17:48:59.638Z,102314.02
2023-05-06T17:51:27.650Z,102317.86
2023-05-06T17:53:55.922Z,102317.34
2023-05-06T17:56:23.956Z,102320.84
2023-05-06T17:58:52.021Z,102319.77
2023-05-06T18:01:20.123Z,102318.35
2023-05-06T18:03:48.276Z,102317.81
2023-05-06T18:06:16.472Z,102322.18
2023-05-06T18:08:45.078Z,102323.73
2023-05-06T18:11:13.096Z,102323.01
2023-05-06T18:13:41.063Z,102329.83
2023-05-06T18:16:09.171Z,102330.69
2023-05-06T18:18:37.203Z,102332.06
2023-05-06T18:21:05.181Z,102332.91
2023-05-06T18:23:33.324Z,102337.59
2023-05-06T18:26:04.634Z,102335.77
2023-05-06T18:28:37.634Z,102336.08
2023-05-06T18:31:06.787Z,102337.25
2023-05-06T18:33:35.803Z,102337.02
2023-05-06T18:36:03.929Z,102337.66
2023-05-06T18:38:32.011Z,102337.76
2023-05-06T18:41:02.050Z,102341.58
2023-05-06T18:43:30.874Z,102343.79
2023-05-06T18:45:58.935Z,102346.00
2023-05-06T18:48:27.006Z,102351.37
2023-05-06T18:50:55.142Z,102353.94
2023-05-06T18:53:23.168Z,102358.06
2023-05-06T18:55:51.103Z,102356.42
2023-05-06T18:58:19.394Z,102358.11
2023-05-06T19:00:47.335Z,102361.72
2023-05-06T19:03:15.369Z,102364.80
2023-05-06T19:05:43.340Z,102362.98
2023-05-06T19:08:11.412Z,102361.88
2023-05-06T19:10:39.898Z,102362.70
2023-05-06T19:13:07.938Z,102364.90
2023-05-06T19:15:36.050Z,102366.23
2023-05-06T19:18:05.116Z,102363.35
2023-05-06T19:20:34.220Z,102364.34
2023-05-06T19:23:03.732Z,102367.27
2023-05-06T19:25:33.122Z,102373.17
2023-05-06T19:28:01.052Z,102370.84
2023-05-06T19:30:34.941Z,102367.66
2023-05-06T19:33:04.581Z,102371.61
2023-05-06T19:35:32.615Z,102371.73
2023-05-06T19:38:00.620Z,102372.02
2023-05-06T19:40:29.106Z,102374.41
2023-05-06T19:43:03.712Z,102374.55
2023-05-06T19:45:33.401Z,102372.91
2023-05-06T19:48:04.328Z,102375.85
2023-05-06T19:50:35.559Z,102371.28
2023-05-06T19:53:03.874Z,102375.10
2023-05-06T19:55:32.157Z,102370.88
2023-05-06T19:58:00.370Z,102369.64
2023-05-06T20:00:30.303Z,102367.16
2023-05-06T20:02:59.166Z,102372.42
2023-05-06T20:05:32.020Z,102369.07
2023-05-06T20:08:00.549Z,102373.59
2023-05-06T20:10:29.022Z,102377.95
2023-05-06T20:12:58.046Z,102375.83
2023-05-06T20:15:26.802Z,102380.54
2023-05-06T20:17:54.824Z,102381.79
2023-05-06T20:20:23.039Z,102381.11
2023-05-06T20:22:51.116Z,102382.48
2023-05-06T20:25:19.328Z,102382.13
2023-05-06T20:27:47.221Z,102383.48
2023-05-06T20:30:15.382Z,102383.27
2023-05-06T20:32:43.559Z,102385.50
2023-05-06T20:35:12.246Z,102382.15
2023-05-06T20:37:41.361Z,102384.02
2023-05-06T20:40:10.234Z,102383.27
2023-05-06T20:42:38.261Z,102389.15
2023-05-06T20:45:07.285Z,102390.15
2023-05-06T20:47:36.134Z,102393.44
2023-05-06T20:50:04.847Z,102390.57
2023-05-06T20:52:34.165Z,102393.41
2023-05-06T20:55:03.334Z,102394.32
2023-05-06T20:57:31.328Z,102396.48
2023-05-06T20:59:59.300Z,102397.23
2023-05-06T21:02:30.363Z,102399.80
2023-05-06T21:04:58.567Z,102401.63
2023-05-06T21:07:26.661Z,102404.19
2023-05-06T21:09:54.603Z,102411.23
2023-05-06T21:12:22.654Z,102404.66
2023-05-06T21:14:50.717Z,102408.08
2023-05-06T21:17:19.165Z,102403.65
2023-05-06T21:19:48.832Z,102407.25
2023-05-06T21:22:16.885Z,102403.86
2023-05-06T21:24:44.848Z,102404.46
2023-05-06T21:27:13.019Z,102406.44
2023-05-06T21:29:40.991Z,102406.38
2023-05-06T21:32:08.965Z,102405.45
2023-05-06T21:34:36.949Z,102414.35
2023-05-06T21:37:04.998Z,102419.66
2023-05-06T21:39:33.093Z,102414.08
2023-05-06T21:42:01.129Z,102413.50
2023-05-06T21:44:29.122Z,102414.14
2023-05-06T21:46:57.271Z,102412.42
2023-05-06T21:49:25.537Z,102414.98
2023-05-06T21:51:53.589Z,102416.14
2023-05-06T21:54:21.695Z,102415.73
2023-05-06T21:56:49.761Z,102413.23
2023-05-06T21:59:19.940Z,102412.33
2023-05-06T22:01:48.415Z,102411.23
2023-05-06T22:04:16.987Z,102409.24
2023-05-06T22:06:44.948Z,102407.46
2023-05-06T22:09:12.921Z,102411.54
2023-05-06T22:11:41.099Z,102414.30
2023-05-06T22:14:09.635Z,102416.22
2023-05-06T22:16:41.586Z,102413.36
2023-05-06T22:19:09.592Z,102417.34
2023-05-06T22:21:37.844Z,102416.11
2023-05-06T22:24:06.129Z,102420.27
2023-05-06T22:26:34.191Z,102420.48
2023-05-06T22:29:02.259Z,102422.06
2023-05-06T22:31:30.462Z,102422.26
2023-05-06T22:34:03.624Z,102419.05
2023-05-06T22:36:33.739Z,102421.44
2023-05-06T22:39:02.267Z,102418.75
2023-05-06T22:41:31.137Z,102418.16
2023-05-06T22:44:02.250Z,102423.23
2023-05-06T22:46:30.332Z,102425.61
2023-05-06T22:48:58.596Z,102422.44
2023-05-06T22:51:26.766Z,102424.45
2023-05-06T22:53:54.736Z,102424.89
2023-05-06T22:56:22.662Z,102423.26
2023-05-06T22:58:50.773Z,102421.80
2023-05-06T23:01:18.895Z,102420.35
2023-05-06T23:03:47.016Z,102423.86
2023-05-06T23:06:15.091Z,102422.62
2023-05-06T23:08:43.063Z,102426.91
2023-05-06T23:11:11.032Z,102427.68
2023-05-06T23:13:39.098Z,102428.32
2023-05-06T23:16:07.851Z,102429.90
2023-05-06T23:18:36.507Z,102429.20
2023-05-06T23:21:04.913Z,102435.73
2023-05-06T23:23:33.324Z,102433.04
2023-05-06T23:26:01.328Z,102432.04
2023-05-06T23:28:29.509Z,102438.55
2023-05-06T23:30:57.661Z,102435.67
2023-05-06T23:33:26.018Z,102435.22
2023-05-06T23:35:54.027Z,102436.55
2023-05-06T23:38:22.001Z,102438.08
2023-05-06T23:40:50.027Z,102441.02
2023-05-06T23:43:17.947Z,102440.77
2023-05-06T23:45:46.047Z,102446.97
2023-05-06T23:48:13.941Z,102444.84
2023-05-06T23:50:41.899Z,102447.07
2023-05-06T23:53:09.824Z,102447.20
2023-05-06T23:55:38.248Z,102451.36
2023-05-06T23:58:06.313Z,102450.88
